Oak Grove, Arkansas
Current Conditions -  °F | °C
As of 10:15 PM on Sunday 21 Dec 2014 (Local Time) from KBBG Reporting Station
Overcast Overcast  
Wind Chill: 37°   Ceiling: 2900
Heat Index: 43°   Visibility: 10mi
Dew Point: 36°   Wind: 10mph
Humidity: 76%   Direction: 120°ESE
Pressure: 29.84"   Gusts: NA
Location:  36.46°N, 93.44°W
Report Text: KBBG 220415Z AUTO 12009KT 10SM BKN029 OVC034 06/02 A2984 RMK AO2
Loading
Personal Weather Stations






























Interactive Weather Map New forecast layout! Learn more

10-Day Weather Forecast

Advertisements
Track Severe Weather on mobile